Flight Track Log - Related Links

Times and Time Zones

All times are in EDT time to prevent confusion due to time zone crossing. See the CHQ4762 flight status page for this flight to view local times or setup timezone preferences in your user account.

Time Position Orientation Groundspeed Altitude Reporting Facility
EDT Latitude Longitude Course Direction KTS MPH feet Rate Location/Type
Wed 12:47:55 PM 42.0000 -87.8333 169° South 208 239 3,000  Level Chicago TRACON
Wed 12:48:55 PM 41.9333 -87.8500 191° South 239 275 4,900 964 Climbing Chicago TRACON
Wed 12:50:00 PM 41.6449 -87.6588 157° South  Level Estimated
Wed 12:50:12 PM 41.8589 -87.8769 195° South 233 268 5,200  Level Chicago Center
Wed 12:51:00 PM 41.5606 -87.5972 156° South  Level Estimated
Wed 12:51:14 PM 41.7864 -87.8839 184° South 269 310 7,300  Level Chicago Center
Wed 12:52:00 PM 41.4762 -87.5358 159° South  Level Estimated
Wed 12:52:15 PM 41.7178 -87.8261 148° Southeast 292 336 9,600  Level Chicago Center
Wed 12:53:00 PM 41.3919 -87.4745 169° South  Level Estimated
Wed 12:53:17 PM 41.6339 -87.7522 147° Southeast 299 344 12,500  Level Chicago Center
Wed 12:54:18 PM 41.5656 -87.6947 148° Southeast 292 336 14,600 1,512 Climbing Chicago Center
Wed 12:55:20 PM 41.4925 -87.6308 147° Southeast 307 353 15,600 1,122 Climbing Chicago Center
Wed 12:56:21 PM 41.4103 -87.5719 152° Southeast 333 383 16,900 1,561 Climbing Chicago Center
Wed 12:57:23 PM 41.3214 -87.5547 172° South 325 374 18,800 1,016 Climbing Chicago Center
Wed 12:58:25 PM 41.2300 -87.5394 173° South 327 376 19,000 98 Climbing Chicago Center
Wed 12:59:26 PM 41.1311 -87.5144 169° South 353 406 19,000  Level Chicago Center
Wed 01:00:28 PM 41.0317 -87.4883 169° South 363 418 19,000  Level Chicago Center
Wed 01:01:29 PM 40.9050 -87.4547 169° South 383 441 19,000  Level Chicago Center
Wed 01:02:31 PM 40.7997 -87.4269 169° South 387 445 19,000  Level Chicago Center
Wed 01:03:32 PM 40.6967 -87.3989 168° South 382 440 19,000  Level Chicago Center
Wed 01:04:34 PM 40.5939 -87.3711 168° South 377 434 19,000  Level Chicago Center
Wed 01:05:35 PM 40.4908 -87.3453 169° South 377 434 19,000  Level Chicago Center
Wed 01:06:37 PM 40.4053 -87.2567 142° Southeast 412 474 19,000 -585 Level Chicago Center
Wed 01:07:38 PM 40.3325 -87.1394 129° Southeast 418 481 17,800 -1,854 Descending Chicago Center
Wed 01:08:40 PM 40.2606 -87.0267 130° Southeast 407 468 15,200 -2,323 Descending Chicago Center
Wed 01:09:42 PM 40.1783 -86.8953 129° Southeast 390 449 13,000 -1,463 Descending Chicago Center
Wed 01:10:43 PM 40.1136 -86.8036 133° Southeast 353 406 12,200 -833 Descending Chicago Center
Wed 01:11:30 PM 40.0650 -86.7269 130° Southeast 381 438 11,500 -716 Descending Indianapolis Center
Wed 01:12:32 PM 39.9931 -86.6256 133° Southeast 376 433 10,900 -585 Descending Indianapolis Center
Wed 01:13:33 PM 39.9253 -86.5247 131° Southeast 374 430 10,300 -976 Descending Indianapolis Center
Wed 01:14:35 PM 39.8675 -86.4383 131° Southeast 355 409 8,900 -1,645 Descending Indianapolis Center
Wed 01:15:37 PM 39.8422 -86.3333 107° East 312 359 6,900 -1,875 Descending Indianapolis Center
Wed 01:15:55 PM 39.8500 -86.3000 73° East 297 342 6,400 -1,615 Descending Indianapolis TRACON
Wed 01:16:55 PM 39.8833 -86.2000 66° East 294 338 4,800 -1,500 Descending Indianapolis TRACON
Wed 01:17:55 PM 39.8667 -86.1333 108° East 236 272 3,400 -900 Descending Indianapolis TRACON
Wed 01:18:55 PM 39.8167 -86.1833 218° Southwest 216 249 3,000 -600 Descending Indianapolis TRACON
Wed 01:19:55 PM 39.7667 -86.2333 218° Southwest 196 226 2,200 -800 Descending Indianapolis TRACON

Login

Don't have an account? Register now (free) for customized features, flight alerts, and more!